NORTHERN QUEENS  -  Freeze Warning Freeze Warning        SOUTHERN QUEENS  -  Freeze Warning Freeze Warning      

Active alerts

Northern Queens
  Details for Northern Queens Freeze Warning
Southern Queens
  Details for Southern Queens Freeze Warning


WXM80 ListenWXM80 Stop

You find our weather info also at:

UK Metoffice

WeatherCloud

Weather Underground

Northeastern Weather Network

AWEKAS

Citizen Weather Observer Program (CWOP)

HAMweather, WeatherForYou, PWS Weather


Weather Underground History page Text

Daily Summary for January 18, 2018 Units:  Both    English   Metric
« Previous Day
Next Day »
Daily Weekly Monthly Yearly Custom
  High: Low: Average:
Temperature: 31.1 °F /  -0.5 °C 19.7 °F /  -6.8 °C 25.6 °F /  -3.6 °C
Dew Point: 20.5 °F /  -6.4 °C 14.7 °F /  -9.6 °C 17.7 °F /  -7.9 °C
Humidity: 83 % 60 % 72 %
Wind Speed: 8.7 mph /  14 km/h - 3.6 mph /  5.8 km/h
Wind Gust: 15.0 mph /  24.1 km/h - -
Wind:- - WNW
Pressure: 29.90 in /  1012.4 hPa 29.67 in /  1004.6 hPa -
Precipitation: 0.00 in /  0 mm    
Historical Graphs
 
 
Tabular Data for January 18, 2018
Time Temperature Dew Point Pressure Wind Wind Speed Wind Gust Humidity Rainfall Rate (Hourly)
00:04 25.2 °F /  -3.8 °C 20.5 °F /  -6.4 °C 29.88 in /  1011.7 hPa NNW 2.7 mph /  4.3 km/h 4.0 mph /  6.4 km/h 82 % 0.00 in /  0 mm
00:09 25.1 °F /  -3.8 °C 20.4 °F /  -6.4 °C 29.89 in /  1012.1 hPa NW 0.9 mph /  1.4 km/h 5.8 mph /  9.3 km/h 82 % 0.00 in /  0 mm
00:14 25.0 °F /  -3.9 °C 20.3 °F /  -6.5 °C 29.89 in /  1012.1 hPa NNW 2.8 mph /  4.5 km/h 6.9 mph /  11.1 km/h 82 % 0.00 in /  0 mm
00:19 24.9 °F /  -3.9 °C 19.9 °F /  -6.7 °C 29.90 in /  1012.4 hPa WNW 2.3 mph /  3.7 km/h 6.9 mph /  11.1 km/h 81 % 0.00 in /  0 mm
00:24 24.7 °F /  -4.1 °C 19.7 °F /  -6.8 °C 29.90 in /  1012.4 hPa WNW 3.9 mph /  6.3 km/h 6.9 mph /  11.1 km/h 81 % 0.00 in /  0 mm
00:29 24.6 °F /  -4.1 °C 19.3 °F /  -7.1 °C 29.89 in /  1012.1 hPa NW 4.2 mph /  6.8 km/h 5.0 mph /  8 km/h 80 % 0.00 in /  0 mm
00:34 24.5 °F /  -4.2 °C 19.2 °F /  -7.1 °C 29.88 in /  1011.7 hPa West 4.7 mph /  7.6 km/h 7.0 mph /  11.3 km/h 80 % 0.00 in /  0 mm
00:39 24.4 °F /  -4.2 °C 19.1 °F /  -7.2 °C 29.88 in /  1011.7 hPa NNW 2.8 mph /  4.5 km/h 5.8 mph /  9.3 km/h 80 % 0.00 in /  0 mm
00:44 24.2 °F /  -4.3 °C 18.9 °F /  -7.3 °C 29.87 in /  1011.4 hPa NNW 4.1 mph /  6.6 km/h 9.2 mph /  14.8 km/h 80 % 0.00 in /  0 mm
00:50 24.1 °F /  -4.4 °C 18.8 °F /  -7.3 °C 29.88 in /  1011.7 hPa NNW 4.7 mph /  7.6 km/h 9.2 mph /  14.8 km/h 80 % 0.00 in /  0 mm
00:55 24.0 °F /  -4.4 °C 18.4 °F /  -7.6 °C 29.89 in /  1012.1 hPa NW 2.4 mph /  3.9 km/h 4.6 mph /  7.4 km/h 79 % 0.00 in /  0 mm
01:00 24.0 °F /  -4.4 °C 18.4 °F /  -7.6 °C 29.89 in /  1012.1 hPa WNW 2.3 mph /  3.7 km/h 8.1 mph /  13 km/h 79 % 0.00 in /  0 mm
01:05 23.9 °F /  -4.5 °C 18.3 °F /  -7.6 °C 29.88 in /  1011.7 hPa NW 0.8 mph /  1.3 km/h 4.6 mph /  7.4 km/h 79 % 0.00 in /  0 mm
01:10 23.9 °F /  -4.5 °C 18.3 °F /  -7.6 °C 29.88 in /  1011.7 hPa NW 2.1 mph /  3.4 km/h 5.8 mph /  9.3 km/h 79 % 0.00 in /  0 mm
01:15 23.8 °F /  -4.6 °C 18.5 °F /  -7.5 °C 29.88 in /  1011.7 hPa NW 1.9 mph /  3.1 km/h 3.5 mph /  5.6 km/h 80 % 0.00 in /  0 mm
01:20 23.7 °F /  -4.6 °C 18.4 °F /  -7.6 °C 29.88 in /  1011.7 hPa NW 3.8 mph /  6.1 km/h 8.1 mph /  13 km/h 80 % 0.00 in /  0 mm
01:25 23.6 °F /  -4.7 °C 18.3 °F /  -7.6 °C 29.88 in /  1011.7 hPa NNW 3.1 mph /  5 km/h 4.6 mph /  7.4 km/h 80 % 0.00 in /  0 mm
01:30 23.5 °F /  -4.7 °C 18.2 °F /  -7.7 °C 29.88 in /  1011.7 hPa NW 3.1 mph /  5 km/h 4.6 mph /  7.4 km/h 80 % 0.00 in /  0 mm
01:35 23.4 °F /  -4.8 °C 18.1 °F /  -7.7 °C 29.87 in /  1011.4 hPa NW 4.2 mph /  6.8 km/h 10.4 mph /  16.7 km/h 80 % 0.00 in /  0 mm
01:40 23.4 °F /  -4.8 °C 18.1 °F /  -7.7 °C 29.88 in /  1011.7 hPa NNW 3.9 mph /  6.3 km/h 6.9 mph /  11.1 km/h 80 % 0.00 in /  0 mm
01:45 23.3 °F /  -4.8 °C 18.0 °F /  -7.8 °C 29.88 in /  1011.7 hPa NW 2.5 mph /  4 km/h 6.9 mph /  11.1 km/h 80 % 0.00 in /  0 mm
01:50 23.1 °F /  -4.9 °C 17.8 °F /  -7.9 °C 29.88 in /  1011.7 hPa NW 2.7 mph /  4.3 km/h 6.9 mph /  11.1 km/h 80 % 0.00 in /  0 mm
01:55 23.0 °F /  -5 °C 17.7 °F /  -7.9 °C 29.87 in /  1011.4 hPa NNW 3.5 mph /  5.6 km/h 6.0 mph /  9.7 km/h 80 % 0.00 in /  0 mm
02:00 22.9 °F /  -5.1 °C 17.7 °F /  -7.9 °C 29.87 in /  1011.4 hPa NNW 4.3 mph /  6.9 km/h 5.8 mph /  9.3 km/h 80 % 0.00 in /  0 mm
02:05 22.7 °F /  -5.2 °C 17.5 °F /  -8.1 °C 29.87 in /  1011.4 hPa North 3.9 mph /  6.3 km/h 8.0 mph /  12.9 km/h 80 % 0.00 in /  0 mm
02:10 22.7 °F /  -5.2 °C 17.5 °F /  -8.1 °C 29.87 in /  1011.4 hPa NW 5.4 mph /  8.7 km/h 11.5 mph /  18.5 km/h 80 % 0.00 in /  0 mm
02:16 22.5 °F /  -5.3 °C 17.0 °F /  -8.3 °C 29.87 in /  1011.4 hPa NW 4.5 mph /  7.2 km/h 5.0 mph /  8 km/h 79 % 0.00 in /  0 mm
02:21 22.4 °F /  -5.3 °C 16.9 °F /  -8.4 °C 29.87 in /  1011.4 hPa NNW 3.0 mph /  4.8 km/h 8.0 mph /  12.9 km/h 79 % 0.00 in /  0 mm
02:26 22.4 °F /  -5.3 °C 16.9 °F /  -8.4 °C 29.87 in /  1011.4 hPa NW 3.0 mph /  4.8 km/h 10.0 mph /  16.1 km/h 79 % 0.00 in /  0 mm
02:31 22.3 °F /  -5.4 °C 16.8 °F /  -8.4 °C 29.87 in /  1011.4 hPa NW 3.0 mph /  4.8 km/h 7.0 mph /  11.3 km/h 79 % 0.00 in /  0 mm
02:36 22.2 °F /  -5.4 °C 17.0 °F /  -8.3 °C 29.86 in /  1011.1 hPa NW 6.0 mph /  9.7 km/h 12.0 mph /  19.3 km/h 80 % 0.00 in /  0 mm
02:41 22.1 °F /  -5.5 °C 16.9 °F /  -8.4 °C 29.87 in /  1011.4 hPa NW 3.0 mph /  4.8 km/h 9.0 mph /  14.5 km/h 80 % 0.00 in /  0 mm
02:46 22.0 °F /  -5.6 °C 16.8 °F /  -8.4 °C 29.86 in /  1011.1 hPa NNW 3.0 mph /  4.8 km/h 9.0 mph /  14.5 km/h 80 % 0.00 in /  0 mm
02:51 22.0 °F /  -5.6 °C 17.1 °F /  -8.3 °C 29.86 in /  1011.1 hPa NNW 5.0 mph /  8 km/h 10.0 mph /  16.1 km/h 81 % 0.00 in /  0 mm
02:56 21.9 °F /  -5.6 °C 17.0 °F /  -8.3 °C 29.85 in /  1010.7 hPa NNW 3.0 mph /  4.8 km/h 9.0 mph /  14.5 km/h 81 % 0.00 in /  0 mm
03:01 21.9 °F /  -5.6 °C 17.2 °F /  -8.2 °C 29.86 in /  1011.1 hPa NW 2.9 mph /  4.7 km/h 5.8 mph /  9.3 km/h 82 % 0.00 in /  0 mm
03:06 21.8 °F /  -5.7 °C 17.2 °F /  -8.2 °C 29.85 in /  1010.7 hPa NW 5.0 mph /  8 km/h 12.0 mph /  19.3 km/h 82 % 0.00 in /  0 mm
03:11 21.7 °F /  -5.7 °C 16.8 °F /  -8.4 °C 29.86 in /  1011.1 hPa NNW 5.0 mph /  8 km/h 8.0 mph /  12.9 km/h 81 % 0.00 in /  0 mm
03:16 21.6 °F /  -5.8 °C 16.7 °F /  -8.5 °C 29.85 in /  1010.7 hPa NW 5.8 mph /  9.3 km/h 6.0 mph /  9.7 km/h 81 % 0.00 in /  0 mm
03:21 21.5 °F /  -5.8 °C 16.6 °F /  -8.6 °C 29.85 in /  1010.7 hPa NW 6.0 mph /  9.7 km/h 9.0 mph /  14.5 km/h 81 % 0.00 in /  0 mm
03:26 21.5 °F /  -5.8 °C 16.6 °F /  -8.6 °C 29.85 in /  1010.7 hPa NW 5.0 mph /  8 km/h 12.0 mph /  19.3 km/h 81 % 0.00 in /  0 mm
03:31 21.4 °F /  -5.9 °C 16.8 °F /  -8.4 °C 29.84 in /  1010.4 hPa NW 5.0 mph /  8 km/h 12.0 mph /  19.3 km/h 82 % 0.00 in /  0 mm
03:36 21.3 °F /  -5.9 °C 16.7 °F /  -8.5 °C 29.83 in /  1010 hPa NW 5.0 mph /  8 km/h 8.0 mph /  12.9 km/h 82 % 0.00 in /  0 mm
03:41 21.2 °F /  -6 °C 16.6 °F /  -8.6 °C 29.83 in /  1010 hPa NW 3.0 mph /  4.8 km/h 8.0 mph /  12.9 km/h 82 % 0.00 in /  0 mm
03:46 21.2 °F /  -6 °C 16.6 °F /  -8.6 °C 29.82 in /  1009.7 hPa NNW 3.0 mph /  4.8 km/h 9.0 mph /  14.5 km/h 82 % 0.00 in /  0 mm
03:51 21.1 °F /  -6.1 °C 16.5 °F /  -8.6 °C 29.82 in /  1009.7 hPa WNW 4.8 mph /  7.7 km/h 11.5 mph /  18.5 km/h 82 % 0.00 in /  0 mm
03:56 21.1 °F /  -6.1 °C 16.5 °F /  -8.6 °C 29.82 in /  1009.7 hPa NW 3.0 mph /  4.8 km/h 8.0 mph /  12.9 km/h 82 % 0.00 in /  0 mm
04:01 21.0 °F /  -6.1 °C 16.6 °F /  -8.6 °C 29.82 in /  1009.7 hPa NNW 4.5 mph /  7.2 km/h 8.1 mph /  13 km/h 83 % 0.00 in /  0 mm
04:06 20.9 °F /  -6.2 °C 16.3 °F /  -8.7 °C 29.82 in /  1009.7 hPa NNW 4.5 mph /  7.2 km/h 8.1 mph /  13 km/h 82 % 0.00 in /  0 mm
04:11 20.9 °F /  -6.2 °C 16.5 °F /  -8.6 °C 29.82 in /  1009.7 hPa NNW 4.2 mph /  6.8 km/h 6.9 mph /  11.1 km/h 83 % 0.00 in /  0 mm
04:16 20.9 °F /  -6.2 °C 16.5 °F /  -8.6 °C 29.81 in /  1009.4 hPa NNW 3.5 mph /  5.6 km/h 7.0 mph /  11.3 km/h 83 % 0.00 in /  0 mm
04:21 20.8 °F /  -6.2 °C 16.5 °F /  -8.6 °C 29.80 in /  1009 hPa NNW 2.4 mph /  3.9 km/h 4.0 mph /  6.4 km/h 83 % 0.00 in /  0 mm
04:26 20.7 °F /  -6.3 °C 16.4 °F /  -8.7 °C 29.80 in /  1009 hPa NNW 4.3 mph /  6.9 km/h 10.4 mph /  16.7 km/h 83 % 0.00 in /  0 mm
04:31 20.6 °F /  -6.3 °C 16.3 °F /  -8.7 °C 29.80 in /  1009 hPa NW 3.6 mph /  5.8 km/h 6.9 mph /  11.1 km/h 83 % 0.00 in /  0 mm
04:36 20.6 °F /  -6.3 °C 16.0 °F /  -8.9 °C 29.80 in /  1009 hPa NW 4.8 mph /  7.7 km/h 8.1 mph /  13 km/h 82 % 0.00 in /  0 mm
04:41 20.5 °F /  -6.4 °C 15.9 °F /  -8.9 °C 29.79 in /  1008.7 hPa NNW 6.0 mph /  9.7 km/h 6.0 mph /  9.7 km/h 82 % 0.00 in /  0 mm
04:46 20.4 °F /  -6.4 °C 15.8 °F /  -9 °C 29.79 in /  1008.7 hPa NNW 3.1 mph /  5 km/h 5.8 mph /  9.3 km/h 82 % 0.00 in /  0 mm
04:51 20.4 °F /  -6.4 °C 15.8 °F /  -9 °C 29.79 in /  1008.7 hPa NW 4.9 mph /  7.9 km/h 8.1 mph /  13 km/h 82 % 0.00 in /  0 mm
04:56 20.4 °F /  -6.4 °C 15.8 °F /  -9 °C 29.79 in /  1008.7 hPa WNW 4.3 mph /  6.9 km/h 7.0 mph /  11.3 km/h 82 % 0.00 in /  0 mm
05:01 20.3 °F /  -6.5 °C 15.7 °F /  -9.1 °C 29.78 in /  1008.4 hPa NNW 3.6 mph /  5.8 km/h 5.8 mph /  9.3 km/h 82 % 0.00 in /  0 mm
05:06 20.3 °F /  -6.5 °C 16.0 °F /  -8.9 °C 29.78 in /  1008.4 hPa NNW 2.7 mph /  4.3 km/h 5.8 mph /  9.3 km/h 83 % 0.00 in /  0 mm
05:11 20.3 °F /  -6.5 °C 16.0 °F /  -8.9 °C 29.79 in /  1008.7 hPa WNW 4.2 mph /  6.8 km/h 10.4 mph /  16.7 km/h 83 % 0.00 in /  0 mm
05:16 20.3 °F /  -6.5 °C 16.0 °F /  -8.9 °C 29.79 in /  1008.7 hPa NNW 3.4 mph /  5.5 km/h 9.2 mph /  14.8 km/h 83 % 0.00 in /  0 mm
05:21 20.3 °F /  -6.5 °C 15.7 °F /  -9.1 °C 29.79 in /  1008.7 hPa NW 3.1 mph /  5 km/h 5.8 mph /  9.3 km/h 82 % 0.00 in /  0 mm
05:26 20.3 °F /  -6.5 °C 15.7 °F /  -9.1 °C 29.79 in /  1008.7 hPa NNW 3.2 mph /  5.1 km/h 6.0 mph /  9.7 km/h 82 % 0.00 in /  0 mm
05:32 20.2 °F /  -6.6 °C 15.6 °F /  -9.1 °C 29.79 in /  1008.7 hPa WNW 1.4 mph /  2.3 km/h 6.0 mph /  9.7 km/h 82 % 0.00 in /  0 mm
05:37 20.2 °F /  -6.6 °C 15.6 °F /  -9.1 °C 29.78 in /  1008.4 hPa North 3.4 mph /  5.5 km/h 5.8 mph /  9.3 km/h 82 % 0.00 in /  0 mm
05:42 20.2 °F /  -6.6 °C 15.6 °F /  -9.1 °C 29.78 in /  1008.4 hPa NW 2.6 mph /  4.2 km/h 5.8 mph /  9.3 km/h 82 % 0.00 in /  0 mm
05:47 20.2 °F /  -6.6 °C 15.6 °F /  -9.1 °C 29.78 in /  1008.4 hPa NW 2.4 mph /  3.9 km/h 6.9 mph /  11.1 km/h 82 % 0.00 in /  0 mm
05:52 20.1 °F /  -6.6 °C 15.8 °F /  -9 °C 29.78 in /  1008.4 hPa North 2.7 mph /  4.3 km/h 6.0 mph /  9.7 km/h 83 % 0.00 in /  0 mm
05:57 20.1 °F /  -6.6 °C 15.8 °F /  -9 °C 29.78 in /  1008.4 hPa NNW 2.3 mph /  3.7 km/h 6.9 mph /  11.1 km/h 83 % 0.00 in /  0 mm
06:02 20.1 °F /  -6.6 °C 15.5 °F /  -9.2 °C 29.79 in /  1008.7 hPa North 2.9 mph /  4.7 km/h 7.0 mph /  11.3 km/h 82 % 0.00 in /  0 mm
06:07 20.0 °F /  -6.7 °C 15.4 °F /  -9.2 °C 29.80 in /  1009 hPa North 3.4 mph /  5.5 km/h 5.8 mph /  9.3 km/h 82 % 0.00 in /  0 mm
06:12 20.0 °F /  -6.7 °C 15.4 °F /  -9.2 °C 29.81 in /  1009.4 hPa NNW 1.4 mph /  2.3 km/h 3.5 mph /  5.6 km/h 82 % 0.00 in /  0 mm
06:17 20.0 °F /  -6.7 °C 15.4 °F /  -9.2 °C 29.81 in /  1009.4 hPa NW 1.3 mph /  2.1 km/h 4.0 mph /  6.4 km/h 82 % 0.00 in /  0 mm
06:22 19.9 °F /  -6.7 °C 15.3 °F /  -9.3 °C 29.81 in /  1009.4 hPa North 3.5 mph /  5.6 km/h 4.6 mph /  7.4 km/h 82 % 0.00 in /  0 mm
06:27 19.8 °F /  -6.8 °C 14.9 °F /  -9.5 °C 29.82 in /  1009.7 hPa NNW 0.6 mph /  1 km/h 2.3 mph /  3.7 km/h 81 % 0.00 in /  0 mm
06:32 19.8 °F /  -6.8 °C 14.9 °F /  -9.5 °C 29.82 in /  1009.7 hPa NNW 2.1 mph /  3.4 km/h 3.5 mph /  5.6 km/h 81 % 0.00 in /  0 mm
06:37 19.8 °F /  -6.8 °C 14.9 °F /  -9.5 °C 29.82 in /  1009.7 hPa NW 3.0 mph /  4.8 km/h 4.6 mph /  7.4 km/h 81 % 0.00 in /  0 mm
06:42 19.8 °F /  -6.8 °C 14.9 °F /  -9.5 °C 29.82 in /  1009.7 hPa WNW 0.9 mph /  1.4 km/h 5.0 mph /  8 km/h 81 % 0.00 in /  0 mm
06:47 19.8 °F /  -6.8 °C 14.9 °F /  -9.5 °C 29.82 in /  1009.7 hPa WNW 2.5 mph /  4 km/h 4.6 mph /  7.4 km/h 81 % 0.00 in /  0 mm
06:52 19.8 °F /  -6.8 °C 14.9 °F /  -9.5 °C 29.82 in /  1009.7 hPa WNW 1.0 mph /  1.6 km/h 3.5 mph /  5.6 km/h 81 % 0.00 in /  0 mm
06:57 19.7 °F /  -6.8 °C 14.8 °F /  -9.6 °C 29.82 in /  1009.7 hPa WNW 2.3 mph /  3.7 km/h 5.8 mph /  9.3 km/h 81 % 0.00 in /  0 mm
07:02 19.7 °F /  -6.8 °C 14.8 °F /  -9.6 °C 29.81 in /  1009.4 hPa West 2.7 mph /  4.3 km/h 8.1 mph /  13 km/h 81 % 0.00 in /  0 mm
07:07 19.7 °F /  -6.8 °C 14.8 °F /  -9.6 °C 29.81 in /  1009.4 hPa WNW 3.3 mph /  5.3 km/h 6.9 mph /  11.1 km/h 81 % 0.00 in /  0 mm
07:13 19.7 °F /  -6.8 °C 15.1 °F /  -9.4 °C 29.82 in /  1009.7 hPa WSW 4.1 mph /  6.6 km/h 6.9 mph /  11.1 km/h 82 % 0.00 in /  0 mm
07:18 19.7 °F /  -6.8 °C 15.1 °F /  -9.4 °C 29.82 in /  1009.7 hPa NW 1.4 mph /  2.3 km/h 4.6 mph /  7.4 km/h 82 % 0.00 in /  0 mm
07:23 19.7 °F /  -6.8 °C 14.8 °F /  -9.6 °C 29.82 in /  1009.7 hPa WNW 4.4 mph /  7.1 km/h 8.1 mph /  13 km/h 81 % 0.00 in /  0 mm
07:28 19.7 °F /  -6.8 °C 14.8 °F /  -9.6 °C 29.82 in /  1009.7 hPa West 3.8 mph /  6.1 km/h 9.2 mph /  14.8 km/h 81 % 0.00 in /  0 mm
07:33 19.7 °F /  -6.8 °C 14.8 °F /  -9.6 °C 29.82 in /  1009.7 hPa WNW 4.5 mph /  7.2 km/h 8.1 mph /  13 km/h 81 % 0.00 in /  0 mm
07:38 19.7 °F /  -6.8 °C 14.8 °F /  -9.6 °C 29.82 in /  1009.7 hPa WNW 8.5 mph /  13.7 km/h 15.0 mph /  24.1 km/h 81 % 0.00 in /  0 mm
07:43 19.7 °F /  -6.8 °C 14.8 °F /  -9.6 °C 29.81 in /  1009.4 hPa NW 7.5 mph /  12.1 km/h 12.7 mph /  20.4 km/h 81 % 0.00 in /  0 mm
07:48 19.9 °F /  -6.7 °C 14.7 °F /  -9.6 °C 29.81 in /  1009.4 hPa West 3.2 mph /  5.1 km/h 10.4 mph /  16.7 km/h 80 % 0.00 in /  0 mm
07:53 20.0 °F /  -6.7 °C 15.1 °F /  -9.4 °C 29.81 in /  1009.4 hPa NW 5.2 mph /  8.4 km/h 10.0 mph /  16.1 km/h 81 % 0.00 in /  0 mm
07:58 20.2 °F /  -6.6 °C 15.3 °F /  -9.3 °C 29.80 in /  1009 hPa WNW 7.1 mph /  11.4 km/h 10.4 mph /  16.7 km/h 81 % 0.00 in /  0 mm
08:03 20.3 °F /  -6.5 °C 15.1 °F /  -9.4 °C 29.80 in /  1009 hPa WNW 7.6 mph /  12.2 km/h 13.8 mph /  22.2 km/h 80 % 0.00 in /  0 mm
08:08 20.4 °F /  -6.4 °C 15.2 °F /  -9.3 °C 29.80 in /  1009 hPa NNW 6.8 mph /  10.9 km/h 13.8 mph /  22.2 km/h 80 % 0.00 in /  0 mm
08:13 20.6 °F /  -6.3 °C 15.1 °F /  -9.4 °C 29.80 in /  1009 hPa West 4.3 mph /  6.9 km/h 13.8 mph /  22.2 km/h 79 % 0.00 in /  0 mm
08:18 20.8 °F /  -6.2 °C 15.0 °F /  -9.4 °C 29.80 in /  1009 hPa West 6.4 mph /  10.3 km/h 11.5 mph /  18.5 km/h 78 % 0.00 in /  0 mm
08:23 20.9 °F /  -6.2 °C 15.1 °F /  -9.4 °C 29.80 in /  1009 hPa West 8.1 mph /  13 km/h 11.5 mph /  18.5 km/h 78 % 0.00 in /  0 mm
08:28 21.1 °F /  -6.1 °C 15.0 °F /  -9.4 °C 29.80 in /  1009 hPa WNW 7.5 mph /  12.1 km/h 12.7 mph /  20.4 km/h 77 % 0.00 in /  0 mm
08:33 21.2 °F /  -6 °C 15.1 °F /  -9.4 °C 29.80 in /  1009 hPa NW 6.8 mph /  10.9 km/h 12.0 mph /  19.3 km/h 77 % 0.00 in /  0 mm
08:38 21.3 °F /  -5.9 °C 14.9 °F /  -9.5 °C 29.80 in /  1009 hPa WNW 8.7 mph /  14 km/h 15.0 mph /  24.1 km/h 76 % 0.00 in /  0 mm
08:44 21.5 °F /  -5.8 °C 15.1 °F /  -9.4 °C 29.80 in /  1009 hPa WNW 5.5 mph /  8.9 km/h 11.5 mph /  18.5 km/h 76 % 0.00 in /  0 mm
08:49 21.7 °F /  -5.7 °C 15.3 °F /  -9.3 °C 29.80 in /  1009 hPa WSW 5.0 mph /  8 km/h 11.5 mph /  18.5 km/h 76 % 0.00 in /  0 mm
08:54 21.9 °F /  -5.6 °C 15.5 °F /  -9.2 °C 29.80 in /  1009 hPa WNW 6.3 mph /  10.1 km/h 12.7 mph /  20.4 km/h 76 % 0.00 in /  0 mm
08:59 22.1 °F /  -5.5 °C 15.7 °F /  -9.1 °C 29.80 in /  1009 hPa NNW 6.6 mph /  10.6 km/h 11.5 mph /  18.5 km/h 76 % 0.00 in /  0 mm
09:04 22.3 °F /  -5.4 °C 15.9 °F /  -8.9 °C 29.80 in /  1009 hPa WNW 6.4 mph /  10.3 km/h 11.5 mph /  18.5 km/h 76 % 0.00 in /  0 mm
09:09 22.4 °F /  -5.3 °C 16.0 °F /  -8.9 °C 29.80 in /  1009 hPa WNW 4.3 mph /  6.9 km/h 8.1 mph /  13 km/h 76 % 0.00 in /  0 mm
09:14 22.7 °F /  -5.2 °C 16.3 °F /  -8.7 °C 29.80 in /  1009 hPa WNW 3.1 mph /  5 km/h 9.2 mph /  14.8 km/h 76 % 0.00 in /  0 mm
09:19 23.0 °F /  -5 °C 16.6 °F /  -8.6 °C 29.80 in /  1009 hPa NW 5.9 mph /  9.5 km/h 11.5 mph /  18.5 km/h 76 % 0.00 in /  0 mm
09:24 23.4 °F /  -4.8 °C 16.9 °F /  -8.4 °C 29.81 in /  1009.4 hPa WNW 4.7 mph /  7.6 km/h 6.9 mph /  11.1 km/h 76 % 0.00 in /  0 mm
09:29 23.8 °F /  -4.6 °C 17.0 °F /  -8.3 °C 29.81 in /  1009.4 hPa NW 2.3 mph /  3.7 km/h 4.6 mph /  7.4 km/h 75 % 0.00 in /  0 mm
09:34 24.3 °F /  -4.3 °C 17.5 °F /  -8.1 °C 29.81 in /  1009.4 hPa NW 4.0 mph /  6.4 km/h 9.2 mph /  14.8 km/h 75 % 0.00 in /  0 mm
09:39 24.8 °F /  -4 °C 17.4 °F /  -8.1 °C 29.81 in /  1009.4 hPa NW 2.0 mph /  3.2 km/h 6.9 mph /  11.1 km/h 73 % 0.00 in /  0 mm
09:44 25.2 °F /  -3.8 °C 17.8 °F /  -7.9 °C 29.81 in /  1009.4 hPa WNW 4.9 mph /  7.9 km/h 8.1 mph /  13 km/h 73 % 0.00 in /  0 mm
09:49 25.5 °F /  -3.6 °C 17.7 °F /  -7.9 °C 29.81 in /  1009.4 hPa NW 3.4 mph /  5.5 km/h 6.9 mph /  11.1 km/h 72 % 0.00 in /  0 mm
09:54 25.7 °F /  -3.5 °C 17.6 °F /  -8 °C 29.81 in /  1009.4 hPa NW 2.6 mph /  4.2 km/h 5.8 mph /  9.3 km/h 71 % 0.00 in /  0 mm
09:59 26.1 °F /  -3.3 °C 18.0 °F /  -7.8 °C 29.81 in /  1009.4 hPa NW 2.2 mph /  3.5 km/h 8.1 mph /  13 km/h 71 % 0.00 in /  0 mm
10:04 26.4 °F /  -3.1 °C 17.6 °F /  -8 °C 29.81 in /  1009.4 hPa West 3.7 mph /  6 km/h 7.0 mph /  11.3 km/h 69 % 0.00 in /  0 mm
10:10 26.6 °F /  -3 °C 17.5 °F /  -8.1 °C 29.81 in /  1009.4 hPa NW 3.3 mph /  5.3 km/h 5.8 mph /  9.3 km/h 68 % 0.00 in /  0 mm
10:15 27.0 °F /  -2.8 °C 17.8 °F /  -7.9 °C 29.81 in /  1009.4 hPa WNW 2.3 mph /  3.7 km/h 4.6 mph /  7.4 km/h 68 % 0.00 in /  0 mm
10:20 27.2 °F /  -2.7 °C 17.7 °F /  -7.9 °C 29.81 in /  1009.4 hPa West 1.3 mph /  2.1 km/h 8.1 mph /  13 km/h 67 % 0.00 in /  0 mm
10:25 27.4 °F /  -2.6 °C 17.9 °F /  -7.8 °C 29.81 in /  1009.4 hPa WNW 2.6 mph /  4.2 km/h 6.0 mph /  9.7 km/h 67 % 0.00 in /  0 mm
10:30 27.6 °F /  -2.4 °C 17.4 °F /  -8.1 °C 29.81 in /  1009.4 hPa NW 3.3 mph /  5.3 km/h 8.1 mph /  13 km/h 65 % 0.00 in /  0 mm
10:35 28.0 °F /  -2.2 °C 18.5 °F /  -7.5 °C 29.81 in /  1009.4 hPa WNW 0.8 mph /  1.3 km/h 3.5 mph /  5.6 km/h 67 % 0.00 in /  0 mm
10:40 28.2 °F /  -2.1 °C 17.9 °F /  -7.8 °C 29.81 in /  1009.4 hPa WSW 2.1 mph /  3.4 km/h 4.6 mph /  7.4 km/h 65 % 0.00 in /  0 mm
10:45 28.4 °F /  -2 °C 18.1 °F /  -7.7 °C 29.80 in /  1009 hPa West 3.9 mph /  6.3 km/h 8.1 mph /  13 km/h 65 % 0.00 in /  0 mm
10:50 28.5 °F /  -1.9 °C 17.9 °F /  -7.8 °C 29.79 in /  1008.7 hPa NW 5.3 mph /  8.5 km/h 10.4 mph /  16.7 km/h 64 % 0.00 in /  0 mm
10:55 28.5 °F /  -1.9 °C 17.9 °F /  -7.8 °C 29.79 in /  1008.7 hPa NW 4.1 mph /  6.6 km/h 6.0 mph /  9.7 km/h 64 % 0.00 in /  0 mm
11:00 28.6 °F /  -1.9 °C 17.6 °F /  -8 °C 29.78 in /  1008.4 hPa WNW 4.4 mph /  7.1 km/h 5.8 mph /  9.3 km/h 63 % 0.00 in /  0 mm
11:05 28.8 °F /  -1.8 °C 17.8 °F /  -7.9 °C 29.78 in /  1008.4 hPa NNE 4.7 mph /  7.6 km/h 5.8 mph /  9.3 km/h 63 % 0.00 in /  0 mm
11:10 28.7 °F /  -1.8 °C 17.7 °F /  -7.9 °C 29.78 in /  1008.4 hPa NW 3.1 mph /  5 km/h 4.6 mph /  7.4 km/h 63 % 0.00 in /  0 mm
11:13 28.7 °F /  -1.8 °C 18.1 °F /  -7.7 °C 29.77 in /  1008 hPa WNW 4.2 mph /  6.8 km/h 7.0 mph /  11.3 km/h 64 % 0.00 in /  0 mm
11:18 28.7 °F /  -1.8 °C 17.7 °F /  -7.9 °C 29.76 in /  1007.7 hPa NNW 3.0 mph /  4.8 km/h 9.2 mph /  14.8 km/h 63 % 0.00 in /  0 mm
11:23 28.7 °F /  -1.8 °C 17.7 °F /  -7.9 °C 29.75 in /  1007.3 hPa WNW 5.2 mph /  8.4 km/h 10.4 mph /  16.7 km/h 63 % 0.00 in /  0 mm
11:28 28.5 °F /  -1.9 °C 17.9 °F /  -7.8 °C 29.75 in /  1007.3 hPa NW 3.6 mph /  5.8 km/h 7.0 mph /  11.3 km/h 64 % 0.00 in /  0 mm
11:33 28.3 °F /  -2.1 °C 17.7 °F /  -7.9 °C 29.75 in /  1007.3 hPa NNW 3.3 mph /  5.3 km/h 6.9 mph /  11.1 km/h 64 % 0.00 in /  0 mm
11:38 28.3 °F /  -2.1 °C 17.7 °F /  -7.9 °C 29.75 in /  1007.3 hPa WNW 3.3 mph /  5.3 km/h 8.1 mph /  13 km/h 64 % 0.00 in /  0 mm
11:43 28.3 °F /  -2.1 °C 17.7 °F /  -7.9 °C 29.75 in /  1007.3 hPa WNW 3.0 mph /  4.8 km/h 8.1 mph /  13 km/h 64 % 0.00 in /  0 mm
11:48 28.2 °F /  -2.1 °C 17.6 °F /  -8 °C 29.74 in /  1007 hPa NNW 4.4 mph /  7.1 km/h 9.2 mph /  14.8 km/h 64 % 0.00 in /  0 mm
11:53 28.1 °F /  -2.2 °C 17.8 °F /  -7.9 °C 29.74 in /  1007 hPa NNW 6.0 mph /  9.7 km/h 10.4 mph /  16.7 km/h 65 % 0.00 in /  0 mm
11:58 28.2 °F /  -2.1 °C 17.9 °F /  -7.8 °C 29.73 in /  1006.7 hPa NW 4.4 mph /  7.1 km/h 9.2 mph /  14.8 km/h 65 % 0.00 in /  0 mm
12:03 28.1 °F /  -2.2 °C 18.2 °F /  -7.7 °C 29.73 in /  1006.7 hPa NNW 3.2 mph /  5.1 km/h 6.9 mph /  11.1 km/h 66 % 0.00 in /  0 mm
12:08 28.2 °F /  -2.1 °C 17.9 °F /  -7.8 °C 29.72 in /  1006.3 hPa NNW 5.2 mph /  8.4 km/h 5.8 mph /  9.3 km/h 65 % 0.00 in /  0 mm
12:13 28.3 °F /  -2.1 °C 18.4 °F /  -7.6 °C 29.72 in /  1006.3 hPa NNW 6.4 mph /  10.3 km/h 10.4 mph /  16.7 km/h 66 % 0.00 in /  0 mm
12:18 28.4 °F /  -2 °C 18.5 °F /  -7.5 °C 29.71 in /  1006 hPa NW 6.2 mph /  10 km/h 10.0 mph /  16.1 km/h 66 % 0.00 in /  0 mm
12:23 28.6 °F /  -1.9 °C 18.7 °F /  -7.4 °C 29.71 in /  1006 hPa NW 4.3 mph /  6.9 km/h 15.0 mph /  24.1 km/h 66 % 0.00 in /  0 mm
12:29 28.9 °F /  -1.7 °C 19.0 °F /  -7.2 °C 29.71 in /  1006 hPa NW 4.0 mph /  6.4 km/h 8.1 mph /  13 km/h 66 % 0.00 in /  0 mm
12:34 29.1 °F /  -1.6 °C 18.4 °F /  -7.6 °C 29.71 in /  1006 hPa NW 6.4 mph /  10.3 km/h 15.0 mph /  24.1 km/h 64 % 0.00 in /  0 mm
12:39 29.3 °F /  -1.5 °C 18.6 °F /  -7.4 °C 29.71 in /  1006 hPa NNW 5.9 mph /  9.5 km/h 11.5 mph /  18.5 km/h 64 % 0.00 in /  0 mm
12:44 29.5 °F /  -1.4 °C 18.8 °F /  -7.3 °C 29.71 in /  1006 hPa NW 5.7 mph /  9.2 km/h 11.5 mph /  18.5 km/h 64 % 0.00 in /  0 mm
12:49 29.6 °F /  -1.3 °C 18.5 °F /  -7.5 °C 29.70 in /  1005.6 hPa WNW 4.7 mph /  7.6 km/h 12.7 mph /  20.4 km/h 63 % 0.00 in /  0 mm
12:54 29.6 °F /  -1.3 °C 18.5 °F /  -7.5 °C 29.70 in /  1005.6 hPa West 4.7 mph /  7.6 km/h 11.5 mph /  18.5 km/h 63 % 0.00 in /  0 mm
12:59 29.8 °F /  -1.2 °C 19.1 °F /  -7.2 °C 29.70 in /  1005.6 hPa West 6.6 mph /  10.6 km/h 13.0 mph /  20.9 km/h 64 % 0.00 in /  0 mm
13:04 29.8 °F /  -1.2 °C 18.4 °F /  -7.6 °C 29.69 in /  1005.3 hPa WNW 6.6 mph /  10.6 km/h 9.2 mph /  14.8 km/h 62 % 0.00 in /  0 mm
13:09 29.9 °F /  -1.2 °C 18.5 °F /  -7.5 °C 29.69 in /  1005.3 hPa WNW 5.7 mph /  9.2 km/h 10.4 mph /  16.7 km/h 62 % 0.00 in /  0 mm
13:14 30.0 °F /  -1.1 °C 18.9 °F /  -7.3 °C 29.69 in /  1005.3 hPa NW 3.7 mph /  6 km/h 10.0 mph /  16.1 km/h 63 % 0.00 in /  0 mm
13:19 30.1 °F /  -1.1 °C 18.6 °F /  -7.4 °C 29.68 in /  1005 hPa NW 4.8 mph /  7.7 km/h 9.2 mph /  14.8 km/h 62 % 0.00 in /  0 mm
13:24 30.3 °F /  -0.9 °C 18.8 °F /  -7.3 °C 29.68 in /  1005 hPa North 6.0 mph /  9.7 km/h 12.7 mph /  20.4 km/h 62 % 0.00 in /  0 mm
13:29 30.4 °F /  -0.9 °C 18.9 °F /  -7.3 °C 29.68 in /  1005 hPa NNW 3.8 mph /  6.1 km/h 6.9 mph /  11.1 km/h 62 % 0.00 in /  0 mm
13:34 30.5 °F /  -0.8 °C 19.0 °F /  -7.2 °C 29.68 in /  1005 hPa NW 3.2 mph /  5.1 km/h 6.9 mph /  11.1 km/h 62 % 0.00 in /  0 mm
13:39 30.6 °F /  -0.8 °C 18.3 °F /  -7.6 °C 29.68 in /  1005 hPa WNW 5.9 mph /  9.5 km/h 12.7 mph /  20.4 km/h 60 % 0.00 in /  0 mm
13:44 30.7 °F /  -0.7 °C 18.8 °F /  -7.3 °C 29.68 in /  1005 hPa NNE 4.9 mph /  7.9 km/h 10.4 mph /  16.7 km/h 61 % 0.00 in /  0 mm
13:49 30.8 °F /  -0.7 °C 18.9 °F /  -7.3 °C 29.68 in /  1005 hPa NW 1.7 mph /  2.7 km/h 4.6 mph /  7.4 km/h 61 % 0.00 in /  0 mm
13:54 31.0 °F /  -0.6 °C 19.1 °F /  -7.2 °C 29.68 in /  1005 hPa NW 5.6 mph /  9 km/h 9.2 mph /  14.8 km/h 61 % 0.00 in /  0 mm
13:59 31.0 °F /  -0.6 °C 18.7 °F /  -7.4 °C 29.68 in /  1005 hPa WNW 5.6 mph /  9 km/h 8.1 mph /  13 km/h 60 % 0.00 in /  0 mm
14:05 31.0 °F /  -0.6 °C 18.7 °F /  -7.4 °C 29.68 in /  1005 hPa West 5.5 mph /  8.9 km/h 5.8 mph /  9.3 km/h 60 % 0.00 in /  0 mm
14:10 31.0 °F /  -0.6 °C 18.7 °F /  -7.4 °C 29.68 in /  1005 hPa NNW 5.2 mph /  8.4 km/h 8.1 mph /  13 km/h 60 % 0.00 in /  0 mm
14:15 31.0 °F /  -0.6 °C 19.1 °F /  -7.2 °C 29.68 in /  1005 hPa NW 1.5 mph /  2.4 km/h 6.9 mph /  11.1 km/h 61 % 0.00 in /  0 mm
14:20 31.1 °F /  -0.5 °C 19.2 °F /  -7.1 °C 29.68 in /  1005 hPa NW 3.7 mph /  6 km/h 8.1 mph /  13 km/h 61 % 0.00 in /  0 mm
14:25 31.0 °F /  -0.6 °C 19.1 °F /  -7.2 °C 29.68 in /  1005 hPa NW 4.0 mph /  6.4 km/h 8.1 mph /  13 km/h 61 % 0.00 in /  0 mm
14:30 30.9 °F /  -0.6 °C 19.0 °F /  -7.2 °C 29.68 in /  1005 hPa West 3.5 mph /  5.6 km/h 8.1 mph /  13 km/h 61 % 0.00 in /  0 mm
14:35 30.8 °F /  -0.7 °C 19.3 °F /  -7.1 °C 29.68 in /  1005 hPa WNW 6.6 mph /  10.6 km/h 11.5 mph /  18.5 km/h 62 % 0.00 in /  0 mm
14:40 30.7 °F /  -0.7 °C 19.6 °F /  -6.9 °C 29.67 in /  1004.6 hPa NW 4.5 mph /  7.2 km/h 9.2 mph /  14.8 km/h 63 % 0.00 in /  0 mm
14:45 30.6 °F /  -0.8 °C 19.5 °F /  -6.9 °C 29.67 in /  1004.6 hPa North 4.6 mph /  7.4 km/h 8.0 mph /  12.9 km/h 63 % 0.00 in /  0 mm
14:50 30.5 °F /  -0.8 °C 19.4 °F /  -7 °C 29.68 in /  1005 hPa WNW 5.1 mph /  8.2 km/h 10.0 mph /  16.1 km/h 63 % 0.00 in /  0 mm
14:55 30.3 °F /  -0.9 °C 18.8 °F /  -7.3 °C 29.68 in /  1005 hPa NNW 4.9 mph /  7.9 km/h 8.1 mph /  13 km/h 62 % 0.00 in /  0 mm
15:00 30.2 °F /  -1 °C 18.7 °F /  -7.4 °C 29.68 in /  1005 hPa North 4.9 mph /  7.9 km/h 5.8 mph /  9.3 km/h 62 % 0.00 in /  0 mm
15:05 30.1 °F /  -1.1 °C 18.3 °F /  -7.6 °C 29.67 in /  1004.6 hPa North 4.1 mph /  6.6 km/h 6.9 mph /  11.1 km/h 61 % 0.00 in /  0 mm
15:10 29.9 °F /  -1.2 °C 18.1 °F /  -7.7 °C 29.68 in /  1005 hPa NW 3.0 mph /  4.8 km/h 9.2 mph /  14.8 km/h 61 % 0.00 in /  0 mm
15:15 29.9 °F /  -1.2 °C 18.5 °F /  -7.5 °C 29.68 in /  1005 hPa NW 5.0 mph /  8 km/h 10.0 mph /  16.1 km/h 62 % 0.00 in /  0 mm
15:20 29.8 °F /  -1.2 °C 18.0 °F /  -7.8 °C 29.68 in /  1005 hPa NW 5.0 mph /  8 km/h 9.2 mph /  14.8 km/h 61 % 0.00 in /  0 mm
15:25 29.7 °F /  -1.3 °C 18.3 °F /  -7.6 °C 29.68 in /  1005 hPa WNW 4.8 mph /  7.7 km/h 8.1 mph /  13 km/h 62 % 0.00 in /  0 mm
15:30 29.7 °F /  -1.3 °C 17.9 °F /  -7.8 °C 29.68 in /  1005 hPa NNW 6.3 mph /  10.1 km/h 11.0 mph /  17.7 km/h 61 % 0.00 in /  0 mm
15:35 29.7 °F /  -1.3 °C 17.9 °F /  -7.8 °C 29.68 in /  1005 hPa NNW 5.7 mph /  9.2 km/h 8.1 mph /  13 km/h 61 % 0.00 in /  0 mm
15:41 29.6 °F /  -1.3 °C 17.8 °F /  -7.9 °C 29.69 in /  1005.3 hPa NNW 4.4 mph /  7.1 km/h 8.1 mph /  13 km/h 61 % 0.00 in /  0 mm
15:46 29.6 °F /  -1.3 °C 17.8 °F /  -7.9 °C 29.68 in /  1005 hPa NW 5.0 mph /  8 km/h 10.0 mph /  16.1 km/h 61 % 0.00 in /  0 mm
15:51 29.6 °F /  -1.3 °C 17.8 °F /  -7.9 °C 29.68 in /  1005 hPa NNW 4.3 mph /  6.9 km/h 9.2 mph /  14.8 km/h 61 % 0.00 in /  0 mm
15:56 29.6 °F /  -1.3 °C 18.2 °F /  -7.7 °C 29.68 in /  1005 hPa NW 4.5 mph /  7.2 km/h 9.2 mph /  14.8 km/h 62 % 0.00 in /  0 mm
16:01 29.6 °F /  -1.3 °C 18.2 °F /  -7.7 °C 29.69 in /  1005.3 hPa NW 5.3 mph /  8.5 km/h 10.4 mph /  16.7 km/h 62 % 0.00 in /  0 mm
16:06 29.7 °F /  -1.3 °C 18.6 °F /  -7.4 °C 29.69 in /  1005.3 hPa North 6.9 mph /  11.1 km/h 12.7 mph /  20.4 km/h 63 % 0.00 in /  0 mm
16:11 29.7 °F /  -1.3 °C 18.6 °F /  -7.4 °C 29.69 in /  1005.3 hPa WNW 3.4 mph /  5.5 km/h 7.0 mph /  11.3 km/h 63 % 0.00 in /  0 mm
16:16 29.6 °F /  -1.3 °C 18.5 °F /  -7.5 °C 29.69 in /  1005.3 hPa NNW 4.1 mph /  6.6 km/h 6.9 mph /  11.1 km/h 63 % 0.00 in /  0 mm
16:21 29.6 °F /  -1.3 °C 18.9 °F /  -7.3 °C 29.69 in /  1005.3 hPa North 5.2 mph /  8.4 km/h 9.0 mph /  14.5 km/h 64 % 0.00 in /  0 mm
16:26 29.6 °F /  -1.3 °C 18.5 °F /  -7.5 °C 29.69 in /  1005.3 hPa NNE 5.0 mph /  8 km/h 12.7 mph /  20.4 km/h 63 % 0.00 in /  0 mm
16:31 29.6 °F /  -1.3 °C 18.5 °F /  -7.5 °C 29.70 in /  1005.6 hPa NNW 7.3 mph /  11.7 km/h 9.2 mph /  14.8 km/h 63 % 0.00 in /  0 mm
16:36 29.6 °F /  -1.3 °C 18.2 °F /  -7.7 °C 29.70 in /  1005.6 hPa NW 6.0 mph /  9.7 km/h 9.2 mph /  14.8 km/h 62 % 0.00 in /  0 mm
16:41 29.6 °F /  -1.3 °C 17.8 °F /  -7.9 °C 29.70 in /  1005.6 hPa NNW 6.7 mph /  10.8 km/h 10.4 mph /  16.7 km/h 61 % 0.00 in /  0 mm
16:46 29.6 °F /  -1.3 °C 18.2 °F /  -7.7 °C 29.71 in /  1006 hPa NNW 4.3 mph /  6.9 km/h 8.1 mph /  13 km/h 62 % 0.00 in /  0 mm
16:51 29.6 °F /  -1.3 °C 18.2 °F /  -7.7 °C 29.72 in /  1006.3 hPa WNW 5.4 mph /  8.7 km/h 8.1 mph /  13 km/h 62 % 0.00 in /  0 mm
16:57 29.5 °F /  -1.4 °C 18.4 °F /  -7.6 °C 29.72 in /  1006.3 hPa North 4.1 mph /  6.6 km/h 11.0 mph /  17.7 km/h 63 % 0.00 in /  0 mm
17:02 29.4 °F /  -1.4 °C 18.3 °F /  -7.6 °C 29.72 in /  1006.3 hPa NNW 4.7 mph /  7.6 km/h 6.9 mph /  11.1 km/h 63 % 0.00 in /  0 mm
17:07 29.4 °F /  -1.4 °C 18.3 °F /  -7.6 °C 29.72 in /  1006.3 hPa NW 4.2 mph /  6.8 km/h 4.6 mph /  7.4 km/h 63 % 0.00 in /  0 mm
17:12 29.3 °F /  -1.5 °C 17.9 °F /  -7.8 °C 29.72 in /  1006.3 hPa NW 5.8 mph /  9.3 km/h 10.4 mph /  16.7 km/h 62 % 0.00 in /  0 mm
17:17 29.2 °F /  -1.6 °C 18.2 °F /  -7.7 °C 29.72 in /  1006.3 hPa NNW 4.6 mph /  7.4 km/h 6.9 mph /  11.1 km/h 63 % 0.00 in /  0 mm
17:22 29.2 °F /  -1.6 °C 18.2 °F /  -7.7 °C 29.73 in /  1006.7 hPa NNW 4.3 mph /  6.9 km/h 6.9 mph /  11.1 km/h 63 % 0.00 in /  0 mm
17:27 29.1 °F /  -1.6 °C 18.4 °F /  -7.6 °C 29.73 in /  1006.7 hPa NNW 0.6 mph /  1 km/h 3.5 mph /  5.6 km/h 64 % 0.00 in /  0 mm
17:32 29.0 °F /  -1.7 °C 18.7 °F /  -7.4 °C 29.74 in /  1007 hPa NNW 4.8 mph /  7.7 km/h 10.4 mph /  16.7 km/h 65 % 0.00 in /  0 mm
17:37 28.9 °F /  -1.7 °C 18.2 °F /  -7.7 °C 29.74 in /  1007 hPa North 4.1 mph /  6.6 km/h 6.9 mph /  11.1 km/h 64 % 0.00 in /  0 mm
17:42 28.9 °F /  -1.7 °C 18.6 °F /  -7.4 °C 29.74 in /  1007 hPa North 3.9 mph /  6.3 km/h 5.8 mph /  9.3 km/h 65 % 0.00 in /  0 mm
17:47 28.8 °F /  -1.8 °C 18.5 °F /  -7.5 °C 29.74 in /  1007 hPa North 4.8 mph /  7.7 km/h 6.9 mph /  11.1 km/h 65 % 0.00 in /  0 mm
17:52 28.7 °F /  -1.8 °C 18.1 °F /  -7.7 °C 29.74 in /  1007 hPa NNE 6.1 mph /  9.8 km/h 9.2 mph /  14.8 km/h 64 % 0.00 in /  0 mm
17:57 28.6 °F /  -1.9 °C 18.3 °F /  -7.6 °C 29.75 in /  1007.3 hPa North 3.7 mph /  6 km/h 6.0 mph /  9.7 km/h 65 % 0.00 in /  0 mm
18:02 28.6 °F /  -1.9 °C 18.3 °F /  -7.6 °C 29.75 in /  1007.3 hPa North 4.6 mph /  7.4 km/h 6.9 mph /  11.1 km/h 65 % 0.00 in /  0 mm
18:07 28.5 °F /  -1.9 °C 18.2 °F /  -7.7 °C 29.75 in /  1007.3 hPa North 4.8 mph /  7.7 km/h 6.9 mph /  11.1 km/h 65 % 0.00 in /  0 mm
18:12 28.5 °F /  -1.9 °C 18.6 °F /  -7.4 °C 29.76 in /  1007.7 hPa NNE 2.4 mph /  3.9 km/h 5.8 mph /  9.3 km/h 66 % 0.00 in /  0 mm
18:17 28.4 °F /  -2 °C 18.5 °F /  -7.5 °C 29.76 in /  1007.7 hPa North 2.6 mph /  4.2 km/h 6.0 mph /  9.7 km/h 66 % 0.00 in /  0 mm
18:23 28.4 °F /  -2 °C 18.5 °F /  -7.5 °C 29.76 in /  1007.7 hPa NW 3.0 mph /  4.8 km/h 5.8 mph /  9.3 km/h 66 % 0.00 in /  0 mm
18:28 28.4 °F /  -2 °C 18.5 °F /  -7.5 °C 29.77 in /  1008 hPa NNW 2.6 mph /  4.2 km/h 6.9 mph /  11.1 km/h 66 % 0.00 in /  0 mm
18:33 28.3 °F /  -2.1 °C 18.7 °F /  -7.4 °C 29.77 in /  1008 hPa NNW 2.7 mph /  4.3 km/h 4.6 mph /  7.4 km/h 67 % 0.00 in /  0 mm
18:38 28.3 °F /  -2.1 °C 18.7 °F /  -7.4 °C 29.77 in /  1008 hPa North 1.9 mph /  3.1 km/h 6.0 mph /  9.7 km/h 67 % 0.00 in /  0 mm
18:43 28.2 °F /  -2.1 °C 18.6 °F /  -7.4 °C 29.77 in /  1008 hPa North 2.8 mph /  4.5 km/h 5.8 mph /  9.3 km/h 67 % 0.00 in /  0 mm
18:48 28.2 °F /  -2.1 °C 18.6 °F /  -7.4 °C 29.78 in /  1008.4 hPa North 4.0 mph /  6.4 km/h 5.8 mph /  9.3 km/h 67 % 0.00 in /  0 mm
18:53 28.1 °F /  -2.2 °C 18.9 °F /  -7.3 °C 29.77 in /  1008 hPa NNW 3.7 mph /  6 km/h 5.8 mph /  9.3 km/h 68 % 0.00 in /  0 mm
18:58 28.1 °F /  -2.2 °C 18.9 °F /  -7.3 °C 29.78 in /  1008.4 hPa NW 2.4 mph /  3.9 km/h 3.5 mph /  5.6 km/h 68 % 0.00 in /  0 mm
19:03 28.1 °F /  -2.2 °C 18.5 °F /  -7.5 °C 29.78 in /  1008.4 hPa NNW 3.2 mph /  5.1 km/h 4.6 mph /  7.4 km/h 67 % 0.00 in /  0 mm
19:08 28.1 °F /  -2.2 °C 18.5 °F /  -7.5 °C 29.78 in /  1008.4 hPa NNE 1.3 mph /  2.1 km/h 3.5 mph /  5.6 km/h 67 % 0.00 in /  0 mm
19:13 28.0 °F /  -2.2 °C 18.8 °F /  -7.3 °C 29.78 in /  1008.4 hPa NW 2.1 mph /  3.4 km/h 3.5 mph /  5.6 km/h 68 % 0.00 in /  0 mm
19:18 28.0 °F /  -2.2 °C 18.5 °F /  -7.5 °C 29.78 in /  1008.4 hPa NNW 0.8 mph /  1.3 km/h 3.5 mph /  5.6 km/h 67 % 0.00 in /  0 mm
19:23 28.0 °F /  -2.2 °C 18.5 °F /  -7.5 °C 29.79 in /  1008.7 hPa NW 2.5 mph /  4 km/h 3.5 mph /  5.6 km/h 67 % 0.00 in /  0 mm
19:28 28.0 °F /  -2.2 °C 18.5 °F /  -7.5 °C 29.78 in /  1008.4 hPa NNW 3.8 mph /  6.1 km/h 6.9 mph /  11.1 km/h 67 % 0.00 in /  0 mm
19:33 27.9 °F /  -2.3 °C 18.4 °F /  -7.6 °C 29.78 in /  1008.4 hPa NW 1.7 mph /  2.7 km/h 3.5 mph /  5.6 km/h 67 % 0.00 in /  0 mm
19:38 27.9 °F /  -2.3 °C 18.4 °F /  -7.6 °C 29.79 in /  1008.7 hPa NNW 0.7 mph /  1.1 km/h 1.2 mph /  1.9 km/h 67 % 0.00 in /  0 mm
19:43 27.9 °F /  -2.3 °C 18.4 °F /  -7.6 °C 29.79 in /  1008.7 hPa NW 1.4 mph /  2.3 km/h 3.0 mph /  4.8 km/h 67 % 0.00 in /  0 mm
19:48 27.9 °F /  -2.3 °C 18.7 °F /  -7.4 °C 29.79 in /  1008.7 hPa WNW 3.4 mph /  5.5 km/h 7.0 mph /  11.3 km/h 68 % 0.00 in /  0 mm
19:53 27.8 °F /  -2.3 °C 18.6 °F /  -7.4 °C 29.79 in /  1008.7 hPa NW 1.1 mph /  1.8 km/h 3.5 mph /  5.6 km/h 68 % 0.00 in /  0 mm
19:58 27.8 °F /  -2.3 °C 18.9 °F /  -7.3 °C 29.80 in /  1009 hPa NW 0.5 mph /  0.8 km/h 3.5 mph /  5.6 km/h 69 % 0.00 in /  0 mm
20:03 27.7 °F /  -2.4 °C 18.8 °F /  -7.3 °C 29.80 in /  1009 hPa NW 3.9 mph /  6.3 km/h 6.0 mph /  9.7 km/h 69 % 0.00 in /  0 mm
20:08 27.7 °F /  -2.4 °C 18.8 °F /  -7.3 °C 29.80 in /  1009 hPa NNE 2.8 mph /  4.5 km/h 3.5 mph /  5.6 km/h 69 % 0.00 in /  0 mm
20:14 27.6 °F /  -2.4 °C 18.8 °F /  -7.3 °C 29.79 in /  1008.7 hPa NNE 3.5 mph /  5.6 km/h 4.0 mph /  6.4 km/h 69 % 0.00 in /  0 mm
20:19 27.6 °F /  -2.4 °C 18.8 °F /  -7.3 °C 29.79 in /  1008.7 hPa North 0.7 mph /  1.1 km/h 2.3 mph /  3.7 km/h 69 % 0.00 in /  0 mm
20:24 27.5 °F /  -2.5 °C 18.7 °F /  -7.4 °C 29.79 in /  1008.7 hPa North 2.7 mph /  4.3 km/h 4.6 mph /  7.4 km/h 69 % 0.00 in /  0 mm
20:29 27.5 °F /  -2.5 °C 18.7 °F /  -7.4 °C 29.80 in /  1009 hPa North 1.8 mph /  2.9 km/h 3.5 mph /  5.6 km/h 69 % 0.00 in /  0 mm
20:34 27.4 °F /  -2.6 °C 18.9 °F /  -7.3 °C 29.80 in /  1009 hPa North 2.2 mph /  3.5 km/h 4.6 mph /  7.4 km/h 70 % 0.00 in /  0 mm
20:39 27.4 °F /  -2.6 °C 18.6 °F /  -7.4 °C 29.80 in /  1009 hPa NNW 3.5 mph /  5.6 km/h 8.1 mph /  13 km/h 69 % 0.00 in /  0 mm
20:44 27.4 °F /  -2.6 °C 18.6 °F /  -7.4 °C 29.80 in /  1009 hPa NNW 1.2 mph /  1.9 km/h 3.5 mph /  5.6 km/h 69 % 0.00 in /  0 mm
20:49 27.4 °F /  -2.6 °C 18.2 °F /  -7.7 °C 29.80 in /  1009 hPa NW 1.7 mph /  2.7 km/h 3.5 mph /  5.6 km/h 68 % 0.00 in /  0 mm
20:54 27.4 °F /  -2.6 °C 18.6 °F /  -7.4 °C 29.81 in /  1009.4 hPa NW 1.1 mph /  1.8 km/h 3.5 mph /  5.6 km/h 69 % 0.00 in /  0 mm
20:59 27.3 °F /  -2.6 °C 18.5 °F /  -7.5 °C 29.81 in /  1009.4 hPa WNW 2.3 mph /  3.7 km/h 3.5 mph /  5.6 km/h 69 % 0.00 in /  0 mm
21:04 27.3 °F /  -2.6 °C 18.5 °F /  -7.5 °C 29.82 in /  1009.7 hPa NNW 0.4 mph /  0.6 km/h 3.5 mph /  5.6 km/h 69 % 0.00 in /  0 mm
21:09 27.2 °F /  -2.7 °C 18.4 °F /  -7.6 °C 29.82 in /  1009.7 hPa Calm   3.5 mph /  5.6 km/h 69 % 0.00 in /  0 mm
21:14 27.2 °F /  -2.7 °C 18.7 °F /  -7.4 °C 29.82 in /  1009.7 hPa NW 2.8 mph /  4.5 km/h 5.0 mph /  8 km/h 70 % 0.00 in /  0 mm
21:19 27.1 °F /  -2.7 °C 18.6 °F /  -7.4 °C 29.82 in /  1009.7 hPa NW 1.2 mph /  1.9 km/h 3.5 mph /  5.6 km/h 70 % 0.00 in /  0 mm
21:24 27.1 °F /  -2.7 °C 18.6 °F /  -7.4 °C 29.82 in /  1009.7 hPa WNW 0.7 mph /  1.1 km/h 5.8 mph /  9.3 km/h 70 % 0.00 in /  0 mm
21:29 27.0 °F /  -2.8 °C 18.5 °F /  -7.5 °C 29.82 in /  1009.7 hPa NW 1.6 mph /  2.6 km/h 3.5 mph /  5.6 km/h 70 % 0.00 in /  0 mm
21:34 27.0 °F /  -2.8 °C 18.5 °F /  -7.5 °C 29.83 in /  1010 hPa Calm   2.3 mph /  3.7 km/h 70 % 0.00 in /  0 mm
21:39 26.9 °F /  -2.8 °C 18.4 °F /  -7.6 °C 29.82 in /  1009.7 hPa WNW 1.5 mph /  2.4 km/h 4.6 mph /  7.4 km/h 70 % 0.00 in /  0 mm
21:44 26.9 °F /  -2.8 °C 18.4 °F /  -7.6 °C 29.82 in /  1009.7 hPa NW 0.8 mph /  1.3 km/h 3.5 mph /  5.6 km/h 70 % 0.00 in /  0 mm
21:50 26.8 °F /  -2.9 °C 18.3 °F /  -7.6 °C 29.83 in /  1010 hPa NW 1.9 mph /  3.1 km/h 4.0 mph /  6.4 km/h 70 % 0.00 in /  0 mm
21:55 26.8 °F /  -2.9 °C 18.7 °F /  -7.4 °C 29.83 in /  1010 hPa WNW 2.5 mph /  4 km/h 3.5 mph /  5.6 km/h 71 % 0.00 in /  0 mm
22:00 26.7 °F /  -2.9 °C 18.6 °F /  -7.4 °C 29.83 in /  1010 hPa Calm   1.2 mph /  1.9 km/h 71 % 0.00 in /  0 mm
22:05 26.7 °F /  -2.9 °C 18.6 °F /  -7.4 °C 29.83 in /  1010 hPa NW 1.5 mph /  2.4 km/h 3.5 mph /  5.6 km/h 71 % 0.00 in /  0 mm
22:10 26.7 °F /  -2.9 °C 18.6 °F /  -7.4 °C 29.82 in /  1009.7 hPa WNW 2.0 mph /  3.2 km/h 6.0 mph /  9.7 km/h 71 % 0.00 in /  0 mm
22:15 26.6 °F /  -3 °C 18.5 °F /  -7.5 °C 29.82 in /  1009.7 hPa NW 1.0 mph /  1.6 km/h 3.5 mph /  5.6 km/h 71 % 0.00 in /  0 mm
22:20 26.6 °F /  -3 °C 18.5 °F /  -7.5 °C 29.83 in /  1010 hPa NW 0.7 mph /  1.1 km/h 3.5 mph /  5.6 km/h 71 % 0.00 in /  0 mm
22:25 26.5 °F /  -3.1 °C 18.4 °F /  -7.6 °C 29.83 in /  1010 hPa WNW 1.2 mph /  1.9 km/h 3.5 mph /  5.6 km/h 71 % 0.00 in /  0 mm
22:30 26.5 °F /  -3.1 °C 18.4 °F /  -7.6 °C 29.83 in /  1010 hPa WNW 1.6 mph /  2.6 km/h 3.5 mph /  5.6 km/h 71 % 0.00 in /  0 mm
22:35 26.5 °F /  -3.1 °C 18.7 °F /  -7.4 °C 29.82 in /  1009.7 hPa WNW 3.1 mph /  5 km/h 4.6 mph /  7.4 km/h 72 % 0.00 in /  0 mm
22:40 26.4 °F /  -3.1 °C 18.6 °F /  -7.4 °C 29.82 in /  1009.7 hPa NW 1.2 mph /  1.9 km/h 4.6 mph /  7.4 km/h 72 % 0.00 in /  0 mm
22:45 26.4 °F /  -3.1 °C 18.6 °F /  -7.4 °C 29.82 in /  1009.7 hPa NW 0.5 mph /  0.8 km/h 4.6 mph /  7.4 km/h 72 % 0.00 in /  0 mm
22:50 26.4 °F /  -3.1 °C 18.9 °F /  -7.3 °C 29.82 in /  1009.7 hPa WNW 0.9 mph /  1.4 km/h 3.5 mph /  5.6 km/h 73 % 0.00 in /  0 mm
22:55 26.3 °F /  -3.2 °C 18.8 °F /  -7.3 °C 29.82 in /  1009.7 hPa WNW 0.8 mph /  1.3 km/h 2.0 mph /  3.2 km/h 73 % 0.00 in /  0 mm
23:00 26.3 °F /  -3.2 °C 18.8 °F /  -7.3 °C 29.81 in /  1009.4 hPa West 0.7 mph /  1.1 km/h 3.0 mph /  4.8 km/h 73 % 0.00 in /  0 mm
23:05 26.3 °F /  -3.2 °C 18.8 °F /  -7.3 °C 29.81 in /  1009.4 hPa Calm     73 % 0.00 in /  0 mm
23:10 26.2 °F /  -3.2 °C 18.7 °F /  -7.4 °C 29.81 in /  1009.4 hPa Calm     73 % 0.00 in /  0 mm
23:15 26.1 °F /  -3.3 °C 18.6 °F /  -7.4 °C 29.81 in /  1009.4 hPa West 0.1 mph /  0.2 km/h 1.2 mph /  1.9 km/h 73 % 0.00 in /  0 mm
23:20 26.0 °F /  -3.3 °C 18.8 °F /  -7.3 °C 29.82 in /  1009.7 hPa West 0.9 mph /  1.4 km/h 1.2 mph /  1.9 km/h 74 % 0.00 in /  0 mm
23:25 25.8 °F /  -3.4 °C 18.7 °F /  -7.4 °C 29.81 in /  1009.4 hPa Calm   2.0 mph /  3.2 km/h 74 % 0.00 in /  0 mm
23:31 25.7 °F /  -3.5 °C 18.6 °F /  -7.4 °C 29.81 in /  1009.4 hPa West 1.0 mph /  1.6 km/h 2.0 mph /  3.2 km/h 74 % 0.00 in /  0 mm
23:36 25.5 °F /  -3.6 °C 18.7 °F /  -7.4 °C 29.81 in /  1009.4 hPa West 1.0 mph /  1.6 km/h 4.0 mph /  6.4 km/h 75 % 0.00 in /  0 mm
23:40 25.3 °F /  -3.7 °C 18.5 °F /  -7.5 °C 29.81 in /  1009.4 hPa Calm   2.0 mph /  3.2 km/h 75 % 0.00 in /  0 mm
23:45 25.2 °F /  -3.8 °C 18.4 °F /  -7.6 °C 29.81 in /  1009.4 hPa Calm   2.0 mph /  3.2 km/h 75 % 0.00 in /  0 mm
23:50 25.0 °F /  -3.9 °C 18.2 °F /  -7.7 °C 29.81 in /  1009.4 hPa WNW 2.4 mph /  3.9 km/h 3.5 mph /  5.6 km/h 75 % 0.00 in /  0 mm
23:56 24.9 °F /  -3.9 °C 18.1 °F /  -7.7 °C 29.80 in /  1009 hPa WNW 3.0 mph /  4.8 km/h 7.0 mph /  11.3 km/h 75 % 0.00 in /  0 mm
Crab Meadow Weather
Compliments of Weather Underground - 3 mb

Script developed by  Jim McMurry - jmcmurry@mwt.net Adapted for the template by  Wim van der Kuil - Leuven-Template.eu

Weather Terms: Winter Storm Watch - Conditions are favorable for hazardous winter weather conditions including heavy snow, blizzard conditions, or significant accumulations of freezing rain or sleet. These watches are issued by the Weather Service Forecast Office in Upton and are usually issued 12 to 36 hours in advance of the event.